Latest Coastal Weather Observations for Nullarbor

IDS60701

Issued at 3:11 am CST Wednesday 25 May 2016 (issued every 10 minutes, with the page automatically refreshed every 10 minutes)

About coastal observations | Map of coastal stations | Coastal observations for SA | Marine services | Other Formats
Station Details ID: 018106 Name: NULLARBOR Lat: -31.45 Lon: 130.90 Height: 64.0 m
Data from the previous 72 hours. | See also: Recent months at Nullarbor
Date/Time
CST
Temp

°C
Wind Pressure Rain
since 9am
mm
Weather Cloud Vis
km
Sea
Height
m
Swell
Dir
 
Speed
knots
Gust
knots
hPa Trend Height
m
Period
s
Dir
25/03:00am 16.4 SSW 5 7 1010.9 - 1.6 Recent precip. Cloudy 10 - - - -
25/02:30am 16.7 SW 9 11 1011.1 - 1.4 - Partly cloudy 10 - - - -
25/02:00am 17.2 SSW 11 13 1011.1 - 1.2 - Partly cloudy 10 - - - -
25/01:30am 17.1 WNW 9 10 1011.9 - 0.8 - Partly cloudy 10 - - - -
25/01:00am 17.7 SW 4 7 1010.5 - 0.8 - Partly cloudy 10 - - - -
25/12:30am 18.4 W 9 13 1010.4 - 0.8 - Cloudy 10 - - - -
25/12:00am 18.1 NNW 10 13 1010.9 - 0.6 Rain Cloudy 10 - - - -
 
Date/Time
CST
Temp

°C
Wind Pressure Rain
since 9am
mm
Weather Cloud Vis
km
Sea
Height
m
Swell
Dir
 
Speed
knots
Gust
knots
hPa Trend Height
m
Period
s
Dir
24/11:30pm 19.3 NW 6 9 1010.6 - 0.4 - Partly cloudy 10 - - - -
24/11:00pm 20.1 NW 10 20 1010.2 - 0.2 - Partly cloudy 10 - - - -
24/10:30pm 20.2 N 11 13 1009.9 - 0.0 - Partly cloudy 10 - - - -
24/10:00pm 20.7 N 11 13 1010.2 - 0.0 - - 10 - - - -
24/09:30pm 21.4 N 12 15 1010.2 - 0.0 - - 10 - - - -
24/09:00pm 21.9 N 14 20 1010.2 - 0.0 - Cloudy 10 - - - -
24/08:30pm 22.0 NNE 13 15 1010.3 - 0.0 - Partly cloudy 10 - - - -
24/08:00pm 21.9 N 11 13 1010.2 - 0.0 - Partly cloudy 10 - - - -
24/07:30pm 22.3 NNE 11 13 1010.0 - 0.0 - Partly cloudy 10 - - - -
24/07:00pm 22.7 N 10 12 1010.0 - 0.0 - Partly cloudy 10 - - - -
24/06:30pm 22.8 N 10 12 1009.7 - 0.0 - Partly cloudy 10 - - - -
24/06:00pm 24.2 N 10 12 1009.6 - 0.0 - Partly cloudy 10 - - - -
24/05:30pm 25.4 N 15 23 1009.6 - 0.0 - - 10 - - - -
24/05:00pm 26.2 N 15 21 1009.6 - 0.0 - Partly cloudy 10 - - - -
24/04:30pm 26.0 N 15 19 1009.7 - 0.0 - - 10 - - - -
24/04:00pm 27.2 N 19 23 1010.1 - 0.0 - - 10 - - - -
24/03:30pm 26.1 N 18 23 1010.2 - 0.0 - - 10 - - - -
24/03:00pm 27.3 NNW 18 25 1010.5 - 0.0 - Mostly clear 10 - - - -
24/02:30pm 26.3 N 18 29 1011.0 - 0.0 - Partly cloudy 10 - - - -
24/02:00pm 25.7 N 19 25 1011.7 - 0.0 - Partly cloudy 10 - - - -
24/01:30pm 25.1 N 21 26 1012.4 - 0.0 - - 10 - - - -
24/01:00pm 24.7 N 19 23 1013.0 - 0.0 - - 10 - - - -
24/12:30pm 22.8 N 20 26 1013.9 - 0.0 - - 10 - - - -
24/12:00pm 21.4 N 19 23 1014.7 - 0.0 - - 10 - - - -
24/11:30am 20.6 N 19 24 1015.6 - 0.0 - - 10 - - - -
24/11:00am 19.2 N 20 28 1016.0 - 0.0 - - 10 - - - -
24/10:30am 18.0 N 19 25 1017.0 - 0.0 - - 10 - - - -
24/10:00am 16.7 NNE 16 24 1017.1 - 0.0 - - 10 - - - -
24/09:30am 13.8 NE 15 20 1017.5 - 0.0 - - 10 - - - -
24/09:00am 11.8 NE 14 17 1018.2 - 0.0 - - 10 - - - -
24/08:30am 10.3 NE 13 17 1018.3 - 0.0 - - 10 - - - -
24/08:00am 8.3 NE 12 15 1018.3 - 0.0 - - 10 - - - -
24/07:30am 7.6 NE 12 14 1018.3 - 0.0 - - 10 - - - -
24/07:00am 7.4 NE 11 13 1018.5 - 0.0 - - 10 - - - -
24/06:30am 6.9 NE 11 13 1018.5 - 0.0 - - 10 - - - -
24/06:00am 6.4 NE 11 13 1018.6 - 0.0 - - 10 - - - -
24/05:30am 5.5 NE 10 12 1018.7 - 0.0 - - 10 - - - -
24/05:00am 4.2 NE 9 10 1019.0 - 0.0 - - 10 - - - -
24/04:30am 3.5 NE 8 9 1019.4 - 0.0 - - 10 - - - -
24/04:00am 3.9 NE 7 8 1019.8 - 0.0 - - 10 - - - -
24/03:30am 4.7 NE 8 9 1019.9 - 0.0 - - 10 - - - -
24/03:00am 5.3 NE 9 9 1019.9 - 0.0 - - 10 - - - -
24/02:30am 5.8 NE 9 10 1020.2 - 0.0 - - 10 - - - -
24/02:00am 6.4 NE 9 10 1020.3 - 0.0 - - 10 - - - -
24/01:30am 6.5 NE 9 10 1020.6 - 0.0 - - 10 - - - -
24/01:00am 7.5 NE 8 10 1021.2 - 0.0 - - 10 - - - -
24/12:30am 7.8 NE 10 11 1021.2 - 0.0 - - 10 - - - -
24/12:00am 7.7 NE 8 9 1022.0 - 0.0 - - 10 - - - -
 
Date/Time
CST
Temp

°C
Wind Pressure Rain
since 9am
mm
Weather Cloud Vis
km
Sea
Height
m
Swell
Dir
 
Speed
knots
Gust
knots
hPa Trend Height
m
Period
s
Dir
23/11:30pm 8.5 ENE 7 8 1022.0 - 0.0 - - 10 - - - -
23/11:00pm 9.6 E 9 10 1021.6 - 0.0 - - 10 - - - -
23/10:30pm 10.5 E 9 11 1022.1 - 0.0 - - 10 - - - -
23/10:00pm 9.6 E 9 10 1022.4 - 0.0 - - 10 - - - -
23/09:30pm 10.2 E 8 10 1022.9 - 0.0 - - 10 - - - -
23/09:00pm 9.3 E 8 9 1023.0 - 0.0 - - 10 - - - -
23/08:30pm 9.8 ENE 8 8 1023.0 - 0.0 - - 10 - - - -
23/08:00pm 10.9 E 8 9 1023.0 - 0.0 - - 10 - - - -
23/07:30pm 12.0 E 8 9 1022.9 - 0.0 - - 10 - - - -
23/07:00pm 12.4 E 8 10 1022.8 - 0.0 - - 10 - - - -
23/06:30pm 12.9 E 7 7 1022.7 - 0.0 - - 10 - - - -
23/06:00pm 15.6 ESE 6 7 1022.7 - 0.0 - - 10 - - - -
23/05:30pm 18.3 NE 4 5 1022.8 - 0.0 - - 10 - - - -
23/05:00pm 19.6 NE 5 7 1022.9 - 0.0 - - 10 - - - -
23/04:30pm 20.1 NNW 4 7 1022.8 - 0.0 - - 10 - - - -
23/04:00pm 20.2 N 5 8 1022.9 - 0.0 - - 10 - - - -
23/03:30pm 20.1 WNW 4 6 1022.8 - 0.0 - - 10 - - - -
23/03:00pm 20.0 ENE 5 9 1023.1 - 0.0 - - 10 - - - -
23/02:30pm 19.8 NNW 5 8 1023.4 - 0.0 - - 10 - - - -
23/02:00pm 19.8 NNW 4 9 1023.9 - 0.0 - - 10 - - - -
23/01:30pm 19.0 N 6 9 1024.2 - 0.0 - - 10 - - - -
23/01:00pm 18.8 NNW 4 9 1024.8 - 0.0 - - 10 - - - -
23/12:30pm 18.6 NNE 4 8 1025.3 - 0.0 - - 10 - - - -
23/12:00pm 18.1 NNW 6 9 1025.9 - 0.0 - - 10 - - - -
23/11:30am 17.4 NNW 6 9 1026.2 - 0.0 - - 10 - - - -
23/11:00am 16.3 N 8 9 1026.3 - 0.0 - - 10 - - - -
23/10:30am 15.2 N 7 10 1026.3 - 0.0 - - 10 - - - -
23/10:00am 13.3 N 8 11 1026.2 - 0.0 - - 10 - - - -
23/09:30am 11.8 NNW 7 8 1026.0 - 0.0 - - 10 - - - -
23/09:00am 9.2 NNW 5 6 1025.7 - 0.0 - - 10 - - - -
23/08:30am 6.1 NW 6 8 1025.5 - 0.0 - - 10 - - - -
23/08:00am 3.8 NNW 7 8 1025.1 - 0.0 - - 10 - - - -
23/07:30am 3.3 NNW 7 8 1025.2 - 0.0 - - 10 - - - -
23/07:00am 3.1 NNW 8 9 1024.9 - 0.0 - - 10 - - - -
23/06:30am 3.3 NNW 7 9 1024.5 - 0.0 - - 10 - - - -
23/06:00am 3.7 NNW 8 9 1024.3 - 0.0 - - 10 - - - -
23/05:30am 3.5 NNW 7 9 1024.0 - 0.0 - - 10 - - - -
23/05:00am 4.3 NNW 8 9 1023.9 - 0.0 - - 10 - - - -
23/04:30am 4.5 NNW 8 9 1023.6 - 0.0 - - 10 - - - -
23/04:00am 5.4 NNW 9 10 1023.4 - 0.0 - - 10 - - - -
23/03:30am 4.4 NNW 8 9 1023.4 - 0.0 - - 10 - - - -
23/03:00am 5.4 NW 6 7 1023.3 - 0.0 - - 10 - - - -
23/02:30am 5.2 N 7 9 1023.3 - 0.0 - - 10 - - - -
23/02:00am 5.5 N 9 10 1023.2 - 0.0 - - 10 - - - -
23/01:30am 5.4 NNW 7 8 1023.1 - 0.0 - - 10 - - - -
23/01:00am 5.9 N 7 8 1023.2 - 0.0 - - 10 - - - -
23/12:30am 6.3 N 7 8 1023.3 - 0.0 - - 10 - - - -
23/12:00am 6.7 NNW 8 9 1023.4 - 0.0 - - 10 - - - -
 
Date/Time
CST
Temp

°C
Wind Pressure Rain
since 9am
mm
Weather Cloud Vis
km
Sea
Height
m
Swell
Dir
 
Speed
knots
Gust
knots
hPa Trend Height
m
Period
s
Dir
22/11:30pm 6.7 N 7 8 1023.4 - 0.0 - - 10 - - - -
22/11:00pm 6.8 N 7 8 1023.1 - 0.0 - - 10 - - - -
22/10:30pm 6.7 N 7 7 1022.9 - 0.0 - - 10 - - - -
22/10:00pm 8.4 NW 6 7 1022.6 - 0.0 - - 10 - - - -
22/09:30pm 8.2 NW 6 6 1022.3 - 0.0 - - 10 - - - -
22/09:00pm 8.2 NW 6 6 1022.0 - 0.0 - - 10 - - - -
22/08:30pm 9.0 NW 5 6 1021.7 - 0.0 - - 10 - - - -
22/08:00pm 9.9 WNW 6 6 1021.3 - 0.0 - - 10 - - - -
22/07:30pm 10.9 WNW 5 6 1020.7 - 0.0 - - 10 - - - -
22/07:00pm 11.3 W 4 5 1020.1 - 0.0 - - 10 - - - -
22/06:30pm 13.3 WSW 6 7 1019.4 - 0.0 - - 10 - - - -
22/06:00pm 14.7 WSW 9 12 1018.9 - 0.0 - - 10 - - - -
22/05:30pm 15.7 WSW 11 16 1018.4 - 0.0 - - 10 - - - -
22/05:00pm 16.5 WSW 15 19 1017.9 - 0.0 - - 10 - - - -
22/04:30pm 16.9 WSW 16 20 1017.5 - 0.0 - - 10 - - - -
22/04:00pm 17.1 WSW 17 22 1017.0 - 0.0 - - 10 - - - -
22/03:30pm 17.4 WSW 18 26 1016.8 - 0.0 - - 10 - - - -
22/03:22pm 17.9 WSW 17 27 1016.7 - 0.0 - - 10 - - - -
22/03:00pm 17.7 WSW 18 24 1016.2 - 0.0 - Mostly clear 10 - - - -
22/02:30pm 18.7 W 17 26 1016.0 - 0.0 - - 10 - - - -
22/02:00pm 18.2 W 19 25 1015.6 - 0.0 - - 10 - - - -
22/01:30pm 18.1 WNW 21 28 1015.4 - 0.0 - - 10 - - - -
22/01:00pm 17.9 W 21 26 1015.4 - 0.0 - - 10 - - - -
22/12:30pm 17.4 WNW 20 29 1015.1 - 0.0 - - 10 - - - -
22/12:00pm 16.8 W 23 31 1015.2 - 0.0 - - 10 - - - -
22/11:30am 16.7 W 23 33 1015.2 - 0.0 - - 10 - - - -
22/11:28am 16.6 WNW 23 33 1015.2 - 0.0 - - 10 - - - -
22/11:00am 16.4 WNW 21 29 1014.8 - 0.0 - - 10 - - - -
22/10:30am 15.9 WNW 22 30 1014.3 - 0.0 - - 10 - - - -
22/10:00am 15.5 WNW 23 31 1013.8 - 0.0 - - 10 - - - -
22/09:47am 15.3 WNW 20 32 1013.6 - 0.0 - Partly cloudy 10 - - - -
22/09:30am 14.4 WNW 18 25 1013.2 - 0.0 - Partly cloudy 10 - - - -
22/09:00am 14.1 WNW 15 19 1012.8 - 1.2 - Cloudy 10 - - - -
22/08:30am 13.9 WNW 15 21 1012.1 - 1.2 - Partly cloudy 10 - - - -
22/08:00am 14.0 WNW 14 20 1011.3 - 1.2 - Cloudy 10 - - - -
22/07:30am 14.3 WNW 15 21 1010.7 - 1.2 - Cloudy 10 - - - -
22/07:00am 14.7 W 14 19 1009.8 - 1.2 - Partly cloudy 10 - - - -
22/06:30am 15.4 WNW 13 17 1009.1 - 1.2 - Cloudy 10 - - - -
22/06:00am 15.3 WNW 8 10 1008.5 - 1.2 - Cloudy 10 - - - -
22/05:30am 15.8 W 12 18 1008.1 - 1.2 - Cloudy 10 - - - -
22/05:00am 16.3 W 15 21 1007.4 - 1.2 - Partly cloudy 9 - - - -
22/04:32am 17.1 NW 10 29 1006.9 - 1.2 - Partly cloudy 10 - - - -
22/04:30am 16.8 NW 8 16 1006.8 - 1.2 - Partly cloudy 10 - - - -
22/04:00am 16.6 N 6 7 1005.8 - 1.2 - Partly cloudy 10 - - - -
22/03:30am 17.4 W 9 14 1006.1 - 0.8 - Partly cloudy 10 - - - -

Other Formats:

Comma delimited format used in spreadsheet applications
http://www.bom.gov.au/fwo/IDS60701/IDS60701.94651.axf

JavaScript Object Notation format (JSON) in row-major order
http://www.bom.gov.au/fwo/IDS60701/IDS60701.94651.json